Time;durP1;ratioP1;P1;durP2;ratioP2;P2;SDS_P1;SDS_P2;PMS_P1;PMS_P2;Temp;Humidity;BMP_temperature;BMP_pressure;BME280_temperature;BME280_humidity;BME280_pressure;Samples;Min_cycle;Max_cycle;Signal;HPM_P1;HPM_P2
2024/03/24 00:01:44;;;;;;;0.30;0.20;;;10.90;99.90;;;;;;5086583;28;20176;-77
2024/03/24 00:04:09;;;;;;;0.30;0.20;;;10.90;99.90;;;;;;5086464;28;20669;-77
2024/03/24 00:06:35;;;;;;;0.30;0.20;;;10.90;99.90;;;;;;5086833;28;20591;-75
2024/03/24 00:09:01;;;;;;;0.30;0.20;;;10.90;99.90;;;;;;5086503;28;20281;-71
2024/03/24 00:11:26;;;;;;;0.30;0.20;;;10.90;99.90;;;;;;5085110;28;20210;-77
2024/03/24 00:13:52;;;;;;;0.30;0.20;;;10.90;99.90;;;;;;5086421;28;20216;-72
2024/03/24 00:16:18;;;;;;;0.30;0.20;;;10.90;99.90;;;;;;5084860;28;20176;-78
2024/03/24 00:18:44;;;;;;;0.30;0.20;;;10.90;99.90;;;;;;5086092;28;20529;-77
2024/03/24 00:21:09;;;;;;;0.30;0.20;;;10.90;99.90;;;;;;5086420;28;20176;-71
2024/03/24 00:23:35;;;;;;;0.30;0.20;;;10.90;99.90;;;;;;5085870;28;20358;-78
2024/03/24 00:26:01;;;;;;;0.30;0.20;;;10.90;99.90;;;;;;5086060;28;20556;-76
2024/03/24 00:28:26;;;;;;;0.30;0.20;;;10.90;99.90;;;;;;5084213;28;20192;-77
2024/03/24 00:30:52;;;;;;;0.30;0.20;;;11.00;99.90;;;;;;5086369;28;20212;-77
2024/03/24 00:33:17;;;;;;;0.30;0.20;;;11.00;99.90;;;;;;5085648;28;20192;-77
2024/03/24 00:35:43;;;;;;;0.30;0.20;;;11.00;99.90;;;;;;5086274;28;20164;-77
2024/03/24 00:38:09;;;;;;;0.30;0.20;;;11.00;99.90;;;;;;5084365;28;20200;-71
2024/03/24 00:40:34;;;;;;;0.30;0.20;;;11.00;99.90;;;;;;5086118;28;20201;-71
2024/03/24 00:43:00;;;;;;;0.30;0.20;;;11.00;99.90;;;;;;5083060;28;20197;-78
2024/03/24 00:45:26;;;;;;;0.30;0.20;;;11.10;99.90;;;;;;5085779;28;20180;-77
2024/03/24 00:47:51;;;;;;;0.30;0.20;;;11.10;99.90;;;;;;5084126;28;20199;-71
2024/03/24 00:50:17;;;;;;;0.30;0.20;;;11.10;99.90;;;;;;5084534;28;20220;-77
2024/03/24 00:52:43;;;;;;;0.30;0.20;;;11.20;99.90;;;;;;5085549;28;20657;-77
2024/03/24 00:55:09;;;;;;;0.30;0.20;;;11.20;99.90;;;;;;5084423;28;20458;-71
2024/03/24 00:57:35;;;;;;;0.30;0.30;;;11.20;99.90;;;;;;5085551;28;20192;-77
2024/03/24 01:00:02;;;;;;;0.30;0.20;;;11.20;99.90;;;;;;5086001;28;20608;-71
2024/03/24 01:02:28;;;;;;;0.30;0.20;;;11.20;99.90;;;;;;5085366;28;20199;-71
2024/03/24 01:04:54;;;;;;;0.30;0.20;;;11.20;99.90;;;;;;5085939;28;20184;-71
2024/03/24 01:07:20;;;;;;;0.30;0.28;;;11.10;99.90;;;;;;5085664;28;20168;-71
2024/03/24 01:09:49;;;;;;;0.30;0.20;;;11.10;99.90;;;;;;5085183;28;20236;-71
2024/03/24 01:12:14;;;;;;;0.30;0.20;;;11.10;99.90;;;;;;5085790;28;20173;-77
2024/03/24 01:14:40;;;;;;;0.30;0.20;;;11.00;99.90;;;;;;5085588;28;20543;-71
2024/03/24 01:17:05;;;;;;;0.30;0.20;;;11.00;99.90;;;;;;5085536;28;20200;-71
2024/03/24 01:19:31;;;;;;;0.30;0.20;;;11.00;99.90;;;;;;5085465;28;20191;-71
2024/03/24 01:21:57;;;;;;;0.30;0.20;;;10.90;99.90;;;;;;5085336;28;20183;-77
2024/03/24 01:24:22;;;;;;;0.30;0.20;;;10.90;99.90;;;;;;5083848;28;20685;-77
2024/03/24 01:26:48;;;;;;;0.30;0.20;;;10.80;99.90;;;;;;5085379;28;20637;-73
2024/03/24 01:29:13;;;;;;;0.30;0.20;;;10.80;99.90;;;;;;5084946;28;20554;-71
2024/03/24 01:31:39;;;;;;;0.30;0.20;;;10.70;99.90;;;;;;5083931;28;20199;-77
2024/03/24 01:34:05;;;;;;;0.30;0.20;;;10.70;99.90;;;;;;5085261;28;20507;-77
2024/03/24 01:36:30;;;;;;;0.30;0.20;;;10.70;99.90;;;;;;5083852;28;20237;-77
2024/03/24 01:38:57;;;;;;;0.30;0.20;;;10.60;99.90;;;;;;5085193;28;20378;-72
2024/03/24 01:41:23;;;;;;;0.30;0.20;;;10.50;99.90;;;;;;5083811;28;20379;-71
2024/03/24 01:43:48;;;;;;;0.30;0.20;;;10.40;99.90;;;;;;5084125;28;20361;-77
2024/03/24 01:46:14;;;;;;;0.30;0.20;;;10.40;99.90;;;;;;5083697;28;20724;-71
2024/03/24 01:48:40;;;;;;;0.30;0.20;;;10.40;99.90;;;;;;5084938;28;20257;-71
2024/03/24 01:51:09;;;;;;;0.30;0.20;;;10.40;99.90;;;;;;5084111;28;20567;-77
2024/03/24 01:53:39;;;;;;;0.30;0.20;;;10.30;99.90;;;;;;5087490;28;20310;-71
2024/03/24 01:56:06;;;;;;;0.30;0.20;;;10.40;99.90;;;;;;5089721;28;20190;-77
2024/03/24 01:58:33;;;;;;;0.30;0.20;;;10.30;99.90;;;;;;5087035;28;20196;-71
2024/03/24 02:00:59;;;;;;;0.30;0.20;;;10.30;99.90;;;;;;5087869;28;20180;-77
2024/03/24 02:03:27;;;;;;;0.30;0.20;;;10.30;99.90;;;;;;5088388;28;20249;-71
2024/03/24 02:05:52;;;;;;;0.30;0.20;;;10.30;99.90;;;;;;5087804;28;20424;-77
2024/03/24 02:08:18;;;;;;;0.30;0.20;;;10.30;99.90;;;;;;5088360;28;20196;-71
2024/03/24 02:10:44;;;;;;;0.30;0.20;;;10.30;99.90;;;;;;5088871;28;20224;-71
2024/03/24 02:13:09;;;;;;;0.30;0.20;;;10.20;99.90;;;;;;5086543;28;20545;-71
2024/03/24 02:15:35;;;;;;;0.30;0.20;;;10.20;99.90;;;;;;5089310;28;20275;-77
2024/03/24 02:18:01;;;;;;;0.30;0.20;;;10.20;99.90;;;;;;5088365;28;20200;-77
2024/03/24 02:20:27;;;;;;;0.30;0.20;;;10.20;99.90;;;;;;5087328;28;20181;-76
2024/03/24 02:22:53;;;;;;;0.30;0.30;;;10.20;99.90;;;;;;5087092;28;20695;-77
2024/03/24 02:25:18;;;;;;;0.30;0.20;;;10.20;99.90;;;;;;5088434;28;20181;-77
2024/03/24 02:27:44;;;;;;;0.30;0.20;;;10.10;99.90;;;;;;5086843;28;20295;-76
2024/03/24 02:30:10;;;;;;;0.30;0.20;;;10.10;99.90;;;;;;5086881;28;20216;-78
2024/03/24 02:32:45;;;;;;;0.30;0.20;;;10.10;99.90;;;;;;5086860;28;20196;-77
2024/03/24 02:35:14;;;;;;;0.30;0.20;;;10.10;99.90;;;;;;5088542;28;20462;-77
2024/03/24 02:37:40;;;;;;;0.30;0.20;;;10.10;99.90;;;;;;5087979;28;20193;-77
2024/03/24 02:40:09;;;;;;;0.30;0.20;;;10.10;99.90;;;;;;5088410;28;20185;-71
2024/03/24 02:42:38;;;;;;;0.30;0.20;;;10.10;99.90;;;;;;5087982;28;20200;-72
2024/03/24 02:45:06;;;;;;;0.30;0.20;;;10.10;99.90;;;;;;5088064;28;20633;-71
2024/03/24 02:47:32;;;;;;;0.30;0.20;;;10.10;99.90;;;;;;5085838;28;20689;-77
2024/03/24 02:50:00;;;;;;;0.30;0.20;;;10.10;99.90;;;;;;5087712;28;20214;-71
2024/03/24 02:52:26;;;;;;;0.30;0.20;;;10.10;99.90;;;;;;5087859;28;20276;-77
2024/03/24 02:54:52;;;;;;;0.30;0.20;;;10.10;99.90;;;;;;5086642;28;20279;-71
2024/03/24 02:57:18;;;;;;;0.30;0.20;;;10.10;99.90;;;;;;5086365;28;20180;-77
2024/03/24 02:59:44;;;;;;;0.30;0.20;;;10.10;99.90;;;;;;5086636;28;20188;-71
2024/03/24 03:02:10;;;;;;;0.30;0.20;;;10.10;99.90;;;;;;5086129;28;20528;-74
2024/03/24 03:04:36;;;;;;;0.30;0.20;;;10.10;99.90;;;;;;5087917;28;20195;-77
2024/03/24 03:07:02;;;;;;;0.30;0.20;;;10.10;99.90;;;;;;5086427;28;20176;-76
2024/03/24 03:09:28;;;;;;;0.30;0.20;;;10.10;99.90;;;;;;5085680;28;20492;-71
2024/03/24 03:11:53;;;;;;;0.30;0.20;;;10.10;99.90;;;;;;5087413;28;20169;-71
2024/03/24 03:14:20;;;;;;;0.30;0.30;;;10.20;99.90;;;;;;5087395;28;20852;-71
2024/03/24 03:16:45;;;;;;;0.30;0.20;;;10.20;99.90;;;;;;5086436;28;20259;-77
2024/03/24 03:19:11;;;;;;;0.30;0.20;;;10.20;99.90;;;;;;5087308;28;20418;-70
2024/03/24 03:21:37;;;;;;;0.30;0.20;;;10.20;99.90;;;;;;5087210;28;20177;-75
2024/03/24 03:24:03;;;;;;;0.30;0.20;;;10.20;99.90;;;;;;5087274;28;20200;-71
2024/03/24 03:26:29;;;;;;;0.30;0.20;;;10.20;99.90;;;;;;5085965;28;20221;-76
2024/03/24 03:28:55;;;;;;;0.30;0.20;;;10.30;99.90;;;;;;5085763;28;20204;-77
2024/03/24 03:31:21;;;;;;;0.30;0.20;;;10.30;99.90;;;;;;5087067;28;20775;-77
2024/03/24 03:33:47;;;;;;;0.30;0.20;;;10.30;99.90;;;;;;5087190;28;20650;-71
2024/03/24 03:36:12;;;;;;;0.30;0.20;;;10.30;99.90;;;;;;5087378;28;20633;-73
2024/03/24 03:38:38;;;;;;;0.30;0.20;;;10.40;99.90;;;;;;5087212;28;20440;-77
2024/03/24 03:41:05;;;;;;;0.30;0.20;;;10.40;99.90;;;;;;5087261;28;20541;-77
2024/03/24 03:43:31;;;;;;;0.30;0.20;;;10.40;99.90;;;;;;5086394;28;20432;-77
2024/03/24 03:45:57;;;;;;;0.30;0.20;;;10.40;99.90;;;;;;5087332;28;20172;-76
2024/03/24 03:48:23;;;;;;;0.30;0.20;;;10.40;99.90;;;;;;5085067;28;20510;-77
2024/03/24 03:50:49;;;;;;;0.30;0.20;;;10.40;99.90;;;;;;5085192;28;20853;-72
2024/03/24 03:53:22;;;;;;;0.30;0.20;;;10.40;99.90;;;;;;5085874;28;20501;-77
2024/03/24 03:55:51;;;;;;;0.30;0.20;;;10.40;99.90;;;;;;5086915;28;20161;-71
2024/03/24 03:58:19;;;;;;;0.30;0.20;;;10.40;99.90;;;;;;5084725;28;20219;-77
2024/03/24 04:00:46;;;;;;;0.30;0.20;;;10.40;99.90;;;;;;5085686;28;20187;-70
2024/03/24 04:03:12;;;;;;;0.30;0.20;;;10.30;99.90;;;;;;5084771;28;20196;-71
2024/03/24 04:05:39;;;;;;;0.30;0.20;;;10.30;99.90;;;;;;5085664;28;20181;-77
2024/03/24 04:08:07;;;;;;;0.30;0.20;;;10.40;99.90;;;;;;5084869;28;20255;-76
2024/03/24 04:10:35;;;;;;;0.30;0.20;;;10.30;99.90;;;;;;5086556;28;20235;-75
2024/03/24 04:13:02;;;;;;;0.30;0.20;;;10.30;99.90;;;;;;5085734;28;20192;-71
2024/03/24 04:15:28;;;;;;;0.30;0.20;;;10.40;99.90;;;;;;5086067;28;20199;-77
2024/03/24 04:17:53;;;;;;;0.30;0.20;;;10.40;99.90;;;;;;5084690;28;20630;-77
2024/03/24 04:20:19;;;;;;;0.30;0.20;;;10.40;99.90;;;;;;5085090;28;20719;-71
2024/03/24 04:22:45;;;;;;;0.30;0.20;;;10.30;99.90;;;;;;5086118;28;20568;-71
2024/03/24 04:25:11;;;;;;;0.30;0.20;;;10.30;99.90;;;;;;5084749;28;20582;-72
2024/03/24 04:27:37;;;;;;;0.30;0.20;;;10.30;99.90;;;;;;5086085;28;20273;-77
2024/03/24 04:30:04;;;;;;;0.30;0.20;;;10.30;99.90;;;;;;5084595;28;20211;-77
2024/03/24 04:32:29;;;;;;;0.30;0.20;;;10.30;99.90;;;;;;5084627;28;20491;-70
2024/03/24 04:34:55;;;;;;;0.30;0.20;;;10.30;99.90;;;;;;5086233;28;20176;-71
2024/03/24 04:37:21;;;;;;;0.30;0.20;;;10.30;99.90;;;;;;5086018;28;20177;-71
2024/03/24 04:39:46;;;;;;;0.30;0.20;;;10.30;99.90;;;;;;5084842;28;20192;-76
2024/03/24 04:42:12;;;;;;;0.30;0.20;;;10.20;99.90;;;;;;5084139;28;20517;-77
2024/03/24 04:44:37;;;;;;;0.30;0.30;;;10.20;99.90;;;;;;5086001;28;20191;-71
2024/03/24 04:47:03;;;;;;;0.30;0.20;;;10.20;99.90;;;;;;5084469;28;20176;-71
2024/03/24 04:49:29;;;;;;;0.30;0.20;;;10.20;99.90;;;;;;5085620;28;20499;-77
2024/03/24 04:51:54;;;;;;;0.30;0.20;;;10.10;99.90;;;;;;5085393;28;20247;-70
2024/03/24 04:54:20;;;;;;;0.30;0.20;;;10.10;99.90;;;;;;5085312;28;20200;-77
2024/03/24 04:56:46;;;;;;;0.30;0.20;;;10.10;99.90;;;;;;5085745;28;20176;-71
2024/03/24 04:59:11;;;;;;;0.30;0.20;;;10.10;99.90;;;;;;5085491;28;20208;-71
2024/03/24 05:01:37;;;;;;;0.30;0.20;;;10.10;99.90;;;;;;5085564;28;20206;-72
2024/03/24 05:04:04;;;;;;;0.30;0.20;;;10.10;99.90;;;;;;5084169;28;20411;-71
2024/03/24 05:06:30;;;;;;;0.30;0.20;;;10.10;99.90;;;;;;5085439;28;20687;-77
2024/03/24 05:08:57;;;;;;;0.30;0.20;;;10.10;99.90;;;;;;5085248;28;20207;-71
2024/03/24 05:11:23;;;;;;;0.30;0.20;;;10.10;99.90;;;;;;5085067;28;20560;-71
2024/03/24 05:13:48;;;;;;;0.30;0.20;;;10.00;99.90;;;;;;5085412;28;20204;-70
2024/03/24 05:16:14;;;;;;;0.30;0.20;;;10.00;99.90;;;;;;5085139;28;20165;-72
2024/03/24 05:18:40;;;;;;;0.30;0.20;;;10.00;99.90;;;;;;5085510;28;20867;-77
2024/03/24 05:21:06;;;;;;;0.30;0.20;;;9.90;99.90;;;;;;5084473;28;20260;-77
2024/03/24 05:23:32;;;;;;;0.30;0.20;;;9.90;99.90;;;;;;5085289;28;20228;-76
2024/03/24 05:25:58;;;;;;;0.30;0.20;;;9.90;99.90;;;;;;5087256;28;20222;-71
2024/03/24 05:28:24;;;;;;;0.30;0.20;;;9.90;99.90;;;;;;5088996;28;20200;-77
2024/03/24 05:30:52;;;;;;;0.30;0.20;;;9.80;99.90;;;;;;5088507;28;20218;-71
2024/03/24 05:33:19;;;;;;;0.30;0.20;;;9.80;99.90;;;;;;5087507;28;20200;-70
2024/03/24 05:35:45;;;;;;;0.30;0.20;;;9.80;99.90;;;;;;5081014;28;20165;-70
2024/03/24 05:38:12;;;;;;;0.30;0.20;;;9.80;99.90;;;;;;5068534;28;20250;-77
2024/03/24 05:40:38;;;;;;;0.30;0.20;;;9.80;99.90;;;;;;5068573;28;20181;-77
2024/03/24 05:43:04;;;;;;;0.30;0.20;;;9.80;99.90;;;;;;5067616;28;20204;-70
2024/03/24 05:45:34;;;;;;;0.30;0.20;;;9.80;99.90;;;;;;5067872;28;20208;-77
2024/03/24 05:48:00;;;;;;;0.30;0.20;;;9.80;99.90;;;;;;5068786;28;20189;-72
2024/03/24 05:50:26;;;;;;;0.30;0.20;;;9.80;99.90;;;;;;5067727;28;20669;-73
2024/03/24 05:52:52;;;;;;;0.30;0.20;;;9.80;99.90;;;;;;5067883;28;20200;-71
2024/03/24 05:55:17;;;;;;;0.30;0.20;;;9.70;99.90;;;;;;5067127;28;20178;-79
2024/03/24 05:57:43;;;;;;;0.30;0.20;;;9.70;99.90;;;;;;5067372;28;20291;-70
2024/03/24 06:00:11;;;;;;;0.30;0.20;;;9.70;99.90;;;;;;5068731;28;20235;-70
2024/03/24 06:02:37;;;;;;;0.30;0.20;;;9.70;99.90;;;;;;5068579;28;20254;-70
2024/03/24 06:05:03;;;;;;;0.30;0.20;;;9.70;99.90;;;;;;5067571;28;20192;-71
2024/03/24 06:07:29;;;;;;;0.30;0.20;;;9.70;99.90;;;;;;5068321;28;20280;-71
2024/03/24 06:09:54;;;;;;;0.30;0.20;;;9.60;99.90;;;;;;5068171;28;20492;-77
2024/03/24 06:12:21;;;;;;;0.30;0.20;;;9.60;99.90;;;;;;5067954;28;20419;-70
2024/03/24 06:14:47;;;;;;;0.30;0.20;;;9.60;99.90;;;;;;5068943;28;20662;-77
2024/03/24 06:17:13;;;;;;;0.30;0.30;;;9.60;99.90;;;;;;5066677;28;20180;-70
2024/03/24 06:19:40;;;;;;;0.30;0.20;;;9.60;99.90;;;;;;5067115;28;20429;-77
2024/03/24 06:22:06;;;;;;;0.30;0.20;;;9.60;99.90;;;;;;5068172;28;20473;-77
2024/03/24 06:24:32;;;;;;;0.30;0.20;;;9.60;99.90;;;;;;5068346;28;20205;-71
2024/03/24 06:26:58;;;;;;;0.30;0.20;;;9.60;99.90;;;;;;5068357;28;20957;-70
2024/03/24 06:29:23;;;;;;;0.30;0.20;;;9.50;99.90;;;;;;5066622;28;20225;-71
2024/03/24 06:31:49;;;;;;;0.30;0.20;;;9.60;99.90;;;;;;5066611;28;20215;-76
2024/03/24 06:34:15;;;;;;;0.30;0.20;;;9.50;99.90;;;;;;5066672;28;20225;-70
2024/03/24 06:36:41;;;;;;;0.30;0.20;;;9.60;99.90;;;;;;5068083;28;20493;-70
2024/03/24 06:39:08;;;;;;;0.30;0.20;;;9.60;99.90;;;;;;5066056;28;20493;-70
2024/03/24 06:41:41;;;;;;;0.30;0.20;;;9.60;99.90;;;;;;5066524;28;20268;-77
2024/03/24 06:44:13;;;;;;;0.30;0.20;;;9.70;99.90;;;;;;5066602;28;20680;-71
2024/03/24 06:46:45;;;;;;;0.30;0.20;;;9.70;99.90;;;;;;5070924;28;20188;-77
2024/03/24 06:49:11;;;;;;;0.30;0.20;;;9.70;99.90;;;;;;5087953;28;20563;-77
2024/03/24 06:51:37;;;;;;;0.30;0.20;;;9.70;99.90;;;;;;5087832;28;20187;-71
2024/03/24 06:54:03;;;;;;;0.30;0.20;;;9.70;99.90;;;;;;5088342;28;20595;-70
2024/03/24 06:56:29;;;;;;;0.30;0.20;;;9.70;99.90;;;;;;5086993;28;20173;-76
2024/03/24 06:58:54;;;;;;;0.30;0.20;;;9.80;99.90;;;;;;5087933;28;20203;-71
2024/03/24 07:01:20;;;;;;;0.30;0.20;;;9.80;99.90;;;;;;5086857;28;20416;-71
2024/03/24 07:03:46;;;;;;;0.63;0.63;;;10.10;99.90;;;;;;5086810;28;20212;-77
2024/03/24 07:06:13;;;;;;;0.30;0.20;;;10.40;99.90;;;;;;5086682;28;20257;-78
2024/03/24 07:08:42;;;;;;;0.30;0.20;;;10.50;99.90;;;;;;5085798;28;20192;-79
2024/03/24 07:11:10;;;;;;;0.30;0.20;;;10.60;99.90;;;;;;5085780;28;20254;-71
2024/03/24 07:13:36;;;;;;;0.30;0.20;;;10.70;99.90;;;;;;5086116;28;20210;-71
2024/03/24 07:16:02;;;;;;;0.30;0.20;;;10.70;99.90;;;;;;5087198;28;20258;-77
2024/03/24 07:18:27;;;;;;;0.30;0.20;;;10.70;99.90;;;;;;5087130;28;20196;-80
2024/03/24 07:21:00;;;;;;;0.30;0.20;;;10.70;99.90;;;;;;5087672;28;20393;-71
2024/03/24 07:23:26;;;;;;;0.30;0.20;;;10.80;99.90;;;;;;5086665;28;20199;-72
2024/03/24 07:25:52;;;;;;;0.30;0.20;;;10.80;99.90;;;;;;5086929;28;20168;-79
2024/03/24 07:28:18;;;;;;;0.30;0.20;;;10.90;99.90;;;;;;5086517;28;20208;-80
2024/03/24 07:30:44;;;;;;;0.30;0.20;;;10.90;99.90;;;;;;5087306;28;20724;-79
2024/03/24 07:33:14;;;;;;;0.30;0.20;;;11.00;99.90;;;;;;5086897;28;20196;-75
2024/03/24 07:35:39;;;;;;;0.30;0.20;;;11.00;99.90;;;;;;5087722;28;20180;-79
2024/03/24 07:38:05;;;;;;;0.30;0.20;;;11.10;99.90;;;;;;5085501;28;20204;-74
2024/03/24 07:40:31;;;;;;;0.30;0.20;;;11.10;99.90;;;;;;5085746;28;20794;-72
2024/03/24 07:42:57;;;;;;;0.30;0.20;;;11.10;99.90;;;;;;5086832;28;20425;-72
2024/03/24 07:45:23;;;;;;;0.30;0.20;;;11.10;99.90;;;;;;5087594;28;20421;-77
2024/03/24 07:47:49;;;;;;;0.30;0.20;;;11.10;99.90;;;;;;5085251;28;20227;-71
2024/03/24 07:50:16;;;;;;;0.30;0.20;;;11.00;99.90;;;;;;5086134;28;20472;-77
2024/03/24 07:52:42;;;;;;;0.30;0.20;;;10.90;99.90;;;;;;5083804;28;20201;-79
2024/03/24 07:55:08;;;;;;;0.30;0.20;;;10.90;99.90;;;;;;5083911;28;20188;-71
2024/03/24 07:57:34;;;;;;;3.80;3.60;;;11.00;99.90;;;;;;5083349;28;20192;-74
2024/03/24 08:00:00;;;;;;;0.30;0.20;;;11.00;99.90;;;;;;5084412;28;20186;-75
2024/03/24 08:02:25;;;;;;;0.30;0.20;;;11.10;99.90;;;;;;5084236;28;20196;-72
2024/03/24 08:04:51;;;;;;;0.30;0.20;;;11.20;99.90;;;;;;5082903;28;20585;-72
2024/03/24 08:07:17;;;;;;;0.30;0.30;;;11.20;99.90;;;;;;5081591;28;20168;-70
2024/03/24 08:09:42;;;;;;;0.30;0.20;;;11.10;99.90;;;;;;5082225;28;20236;-76
2024/03/24 08:12:08;;;;;;;0.30;0.20;;;11.00;99.90;;;;;;5084293;28;20177;-72
2024/03/24 08:14:34;;;;;;;0.30;0.20;;;11.10;99.90;;;;;;5082255;28;20181;-75
2024/03/24 08:17:00;;;;;;;0.30;0.20;;;11.10;99.90;;;;;;5081154;28;20192;-75
2024/03/24 08:19:26;;;;;;;0.30;0.20;;;11.30;99.90;;;;;;5079655;28;20291;-73
2024/03/24 08:21:51;;;;;;;0.30;0.20;;;11.40;99.90;;;;;;5063860;28;20483;-74
2024/03/24 08:24:18;;;;;;;0.30;0.20;;;11.30;99.90;;;;;;5064038;28;20197;-74
2024/03/24 08:26:44;;;;;;;0.30;0.20;;;11.30;99.90;;;;;;5063902;28;20908;-81
2024/03/24 08:29:10;;;;;;;0.30;0.20;;;11.30;99.90;;;;;;5065400;28;20605;-75
2024/03/24 08:31:36;;;;;;;0.80;0.80;;;11.20;99.90;;;;;;5063970;28;20262;-78
2024/03/24 08:34:02;;;;;;;0.30;0.20;;;11.20;99.90;;;;;;5065113;28;20201;-78
2024/03/24 08:36:27;;;;;;;0.30;0.20;;;11.20;99.90;;;;;;5081406;28;20184;-75
2024/03/24 08:38:53;;;;;;;0.30;0.20;;;11.20;99.90;;;;;;5085654;28;20325;-79
2024/03/24 08:41:19;;;;;;;0.30;0.20;;;11.20;99.90;;;;;;5085351;28;20163;-76
2024/03/24 08:43:45;;;;;;;0.30;0.20;;;11.20;99.90;;;;;;5085603;28;20432;-79
2024/03/24 08:46:10;;;;;;;0.30;0.20;;;11.30;99.90;;;;;;5085570;28;20927;-73
2024/03/24 08:48:36;;;;;;;0.30;0.20;;;11.20;99.90;;;;;;5084955;28;20240;-76
2024/03/24 08:51:02;;;;;;;0.30;0.20;;;11.20;99.90;;;;;;5085394;28;20575;-77
2024/03/24 08:53:28;;;;;;;0.30;0.20;;;11.30;99.90;;;;;;5085115;28;20317;-73
2024/03/24 08:55:54;;;;;;;0.30;0.20;;;11.30;99.90;;;;;;5084390;28;20281;-77
2024/03/24 08:58:20;;;;;;;0.30;0.20;;;11.50;99.90;;;;;;5083586;28;20237;-74
2024/03/24 09:00:54;;;;;;;0.30;0.20;;;11.80;99.90;;;;;;5083530;28;20169;-77
2024/03/24 09:03:20;;;;;;;0.30;0.20;;;12.20;99.90;;;;;;5082793;28;20205;-74
2024/03/24 09:05:45;;;;;;;0.30;0.20;;;12.70;99.90;;;;;;5084679;28;20837;-73
2024/03/24 09:08:11;;;;;;;2.43;2.33;;;13.00;99.90;;;;;;5083068;28;20522;-74
2024/03/24 09:10:37;;;;;;;0.30;0.20;;;13.00;99.90;;;;;;5085215;28;20247;-78
2024/03/24 09:13:05;;;;;;;0.30;0.20;;;12.90;99.90;;;;;;5066993;28;20228;-76
2024/03/24 09:15:31;;;;;;;0.30;0.20;;;12.90;99.90;;;;;;5085694;28;20421;-74
2024/03/24 09:17:57;;;;;;;0.30;0.20;;;12.90;99.90;;;;;;5083472;28;20680;-78
2024/03/24 09:20:22;;;;;;;0.40;0.40;;;13.00;99.90;;;;;;5085677;28;20527;-74
2024/03/24 09:22:48;;;;;;;0.30;0.20;;;13.30;99.90;;;;;;5085067;28;20516;-78
2024/03/24 09:25:14;;;;;;;0.40;0.30;;;13.80;99.90;;;;;;5100765;28;20528;-78
2024/03/24 09:27:40;;;;;;;0.30;0.20;;;14.30;99.90;;;;;;5084703;28;20275;-75
2024/03/24 09:30:06;;;;;;;0.30;0.20;;;14.60;99.90;;;;;;5100673;28;20216;-83
2024/03/24 09:32:32;;;;;;;0.30;0.30;;;14.80;99.90;;;;;;5083100;28;20498;-76
2024/03/24 09:34:58;;;;;;;0.40;0.40;;;14.80;99.90;;;;;;5079450;28;20432;-83
2024/03/24 09:37:24;;;;;;;0.30;0.20;;;14.70;99.90;;;;;;5081844;28;20200;-78
2024/03/24 09:39:50;;;;;;;0.30;0.20;;;14.60;99.90;;;;;;5081614;28;20184;-75
2024/03/24 09:42:19;;;;;;;0.60;0.60;;;14.50;99.90;;;;;;5081158;28;20900;-77
2024/03/24 09:44:46;;;;;;;0.30;0.20;;;14.40;99.90;;;;;;5080577;28;20173;-74
2024/03/24 09:47:12;;;;;;;0.30;0.20;;;14.30;99.90;;;;;;5080633;28;20408;-80
2024/03/24 09:49:40;;;;;;;0.70;0.70;;;14.20;99.90;;;;;;5081984;28;20505;-74
2024/03/24 09:52:07;;;;;;;0.30;0.20;;;14.20;99.90;;;;;;5080801;28;20421;-79
2024/03/24 09:54:33;;;;;;;0.30;0.20;;;14.30;99.90;;;;;;5077966;28;20804;-77
2024/03/24 09:56:59;;;;;;;0.30;0.20;;;14.40;99.90;;;;;;5077147;28;20424;-77
2024/03/24 09:59:27;;;;;;;0.30;0.20;;;14.50;99.90;;;;;;5077008;28;20200;-75
2024/03/24 10:01:53;;;;;;;0.30;0.20;;;14.80;99.90;;;;;;5079931;28;20455;-78
2024/03/24 10:04:21;;;;;;;0.30;0.20;;;14.80;99.50;;;;;;5079066;28;20905;-75
2024/03/24 10:06:47;;;;;;;0.30;0.20;;;14.80;99.10;;;;;;5080697;28;20407;-75
2024/03/24 10:09:12;;;;;;;0.30;0.20;;;14.70;99.10;;;;;;5080754;28;20456;-75
2024/03/24 10:11:38;;;;;;;0.30;0.20;;;14.70;99.30;;;;;;5083809;28;20517;-75
2024/03/24 10:14:07;;;;;;;0.30;0.20;;;14.60;99.00;;;;;;5087573;28;20354;-74
2024/03/24 10:16:33;;;;;;;0.30;0.20;;;14.50;98.90;;;;;;5087174;28;20474;-77
2024/03/24 10:19:09;;;;;;;0.30;0.20;;;14.30;99.10;;;;;;5088605;28;20535;-75
2024/03/24 10:21:35;;;;;;;0.30;0.20;;;14.40;99.90;;;;;;5087343;28;20435;-75
2024/03/24 10:24:00;;;;;;;0.53;0.53;;;14.40;99.00;;;;;;5087688;28;20432;-77
2024/03/24 10:26:26;;;;;;;0.50;0.50;;;14.40;99.00;;;;;;5087731;28;20184;-77
2024/03/24 10:28:51;;;;;;;0.30;0.20;;;14.40;99.00;;;;;;5085618;28;20204;-77
2024/03/24 10:31:17;;;;;;;0.30;0.20;;;14.50;99.10;;;;;;5086980;28;20204;-74
2024/03/24 10:33:44;;;;;;;0.30;0.20;;;14.50;99.10;;;;;;5085353;28;20270;-78
2024/03/24 10:36:10;;;;;;;0.30;0.20;;;14.40;98.70;;;;;;5086665;28;20397;-74
2024/03/24 10:38:36;;;;;;;0.30;0.20;;;14.50;98.70;;;;;;5086850;28;20443;-78
2024/03/24 10:41:04;;;;;;;0.30;0.20;;;14.60;98.90;;;;;;5087768;28;20520;-78
2024/03/24 10:43:33;;;;;;;0.30;0.20;;;14.80;98.30;;;;;;5087862;28;20834;-77
2024/03/24 10:45:59;;;;;;;0.30;0.20;;;15.00;97.80;;;;;;5087038;28;20417;-78
2024/03/24 10:48:35;;;;;;;0.30;0.20;;;15.10;97.20;;;;;;5086296;28;20421;-78
2024/03/24 10:51:04;;;;;;;0.30;0.20;;;15.30;97.10;;;;;;5086930;28;21049;-78
2024/03/24 10:53:33;;;;;;;0.30;0.20;;;15.40;96.60;;;;;;5087733;28;20799;-75
2024/03/24 10:56:02;;;;;;;0.30;0.20;;;15.60;95.20;;;;;;5088075;28;20462;-75
2024/03/24 10:58:28;;;;;;;0.30;0.20;;;15.60;94.70;;;;;;5087529;28;21435;-75
2024/03/24 11:00:55;;;;;;;0.30;0.20;;;15.50;94.90;;;;;;5087299;28;20504;-76
2024/03/24 11:03:22;;;;;;;0.30;0.20;;;15.50;95.50;;;;;;5085707;28;20461;-75
2024/03/24 11:05:51;;;;;;;0.30;0.20;;;15.50;95.20;;;;;;5088286;28;20401;-78
2024/03/24 11:08:20;;;;;;;0.30;0.20;;;15.50;94.70;;;;;;5087575;28;20448;-75
2024/03/24 11:10:54;;;;;;;0.73;0.70;;;15.50;93.90;;;;;;5086502;28;20488;-75
2024/03/24 11:13:33;;;;;;;0.30;0.20;;;15.40;93.60;;;;;;5087181;28;20794;-78
2024/03/24 11:15:59;;;;;;;0.30;0.20;;;15.40;93.30;;;;;;5087754;28;20396;-78
2024/03/24 11:18:26;;;;;;;0.30;0.20;;;15.40;93.40;;;;;;5086061;28;20991;-78
2024/03/24 11:21:00;;;;;;;0.30;0.20;;;15.40;93.40;;;;;;5087574;28;20534;-78
2024/03/24 11:23:37;;;;;;;0.30;0.20;;;15.40;93.50;;;;;;5085686;28;20524;-75
2024/03/24 11:26:05;;;;;;;0.30;0.20;;;15.40;93.40;;;;;;5085991;28;20494;-78
2024/03/24 11:28:50;;;;;;;0.30;0.20;;;15.40;93.20;;;;;;5085560;28;20485;-75
2024/03/24 11:31:21;;;;;;;0.30;0.20;;;15.40;92.90;;;;;;5087226;28;20855;-75
2024/03/24 11:34:02;;;;;;;0.40;0.40;;;15.40;92.80;;;;;;5086727;28;20432;-75
2024/03/24 11:36:28;;;;;;;0.30;0.20;;;15.30;92.70;;;;;;5087179;28;20500;-75
2024/03/24 11:38:54;;;;;;;0.30;0.20;;;15.20;92.70;;;;;;5085657;28;20539;-78
2024/03/24 11:41:22;;;;;;;0.30;0.20;;;15.00;92.30;;;;;;5087110;28;20204;-78
2024/03/24 11:43:55;;;;;;;0.30;0.20;;;14.90;92.80;;;;;;5085702;28;21104;-78
2024/03/24 11:46:21;;;;;;;0.30;0.30;;;14.80;92.20;;;;;;5086830;28;20758;-78
2024/03/24 11:48:48;;;;;;;0.30;0.20;;;14.70;92.30;;;;;;5085463;28;20680;-77
2024/03/24 11:51:14;;;;;;;0.30;0.20;;;14.60;93.00;;;;;;5087258;28;20201;-75
2024/03/24 11:53:41;;;;;;;0.30;0.20;;;14.60;93.40;;;;;;5085172;28;20455;-75
2024/03/24 11:56:07;;;;;;;0.30;0.20;;;14.50;93.50;;;;;;5086941;28;20600;-75
2024/03/24 11:58:32;;;;;;;0.30;0.20;;;14.40;93.50;;;;;;5086241;28;20787;-78
2024/03/24 12:01:00;;;;;;;0.77;0.77;;;14.30;93.70;;;;;;5086892;28;20401;-78
2024/03/24 12:03:25;;;;;;;0.30;0.20;;;14.10;93.60;;;;;;5084173;28;20427;-78
2024/03/24 12:05:54;;;;;;;0.30;0.20;;;14.10;93.50;;;;;;5086677;28;20446;-78
2024/03/24 12:08:21;;;;;;;0.30;0.20;;;14.00;93.20;;;;;;5086390;28;20195;-78
2024/03/24 12:10:47;;;;;;;0.30;0.20;;;14.00;93.30;;;;;;5085305;28;20484;-75
2024/03/24 12:13:15;;;;;;;0.30;0.20;;;14.00;93.60;;;;;;5086015;28;20413;-74
2024/03/24 12:15:41;;;;;;;0.30;0.20;;;13.90;93.30;;;;;;5086837;28;20713;-75
2024/03/24 12:18:08;;;;;;;0.30;0.20;;;13.90;93.20;;;;;;5086110;28;20832;-78
2024/03/24 12:20:36;;;;;;;0.30;0.20;;;13.90;93.60;;;;;;5086477;28;20421;-77
2024/03/24 12:23:06;;;;;;;0.30;0.20;;;14.00;93.60;;;;;;5084655;28;20957;-78
2024/03/24 12:25:33;;;;;;;0.30;0.20;;;14.00;93.60;;;;;;5086595;28;20415;-78
2024/03/24 12:27:59;;;;;;;0.30;0.20;;;14.00;93.20;;;;;;5084492;28;20460;-77
2024/03/24 12:30:25;;;;;;;0.30;0.27;;;14.00;92.80;;;;;;5084963;28;20557;-78
2024/03/24 12:32:52;;;;;;;0.30;0.20;;;14.10;92.90;;;;;;5085779;28;20654;-75
2024/03/24 12:35:19;;;;;;;0.30;0.20;;;14.20;93.40;;;;;;5085526;28;20981;-75
2024/03/24 12:37:49;;;;;;;0.30;0.20;;;14.30;93.50;;;;;;5084459;28;20443;-78
2024/03/24 12:40:24;;;;;;;0.40;0.40;;;14.50;93.50;;;;;;5086540;28;20467;-78
2024/03/24 12:42:50;;;;;;;0.30;0.20;;;14.70;93.60;;;;;;5085789;28;20429;-75
2024/03/24 12:45:17;;;;;;;0.30;0.20;;;14.90;94.10;;;;;;5086281;28;20443;-75